Pacific Peacock — 9V7610 — position and weather

sailwx.info

Track history (hours):
 
Tides and Currents Weather Stations Pressure Air Temp Water Temp Dewpoint Dewpoint Depression Visibility Wind Speed Wind Dir Waves Ship Positions

Pacific Peacock

Last reported at 2017-Sep-21 15:33 UTC. Time now 2017-Sep-22 02:39 UTC.
Position N 04°34' W 003°08'.

Length 58 m; draft 4.5 m.

Type: Other ship. MMSI: 563274000.

Date/timePositionNaut miles runAvg speedWind from/ knotsBaromVisibWave heightAir tempDewpointWater temp
2017-Sep-21 15:33N 04°34' W 003°08'14 5.1
2017-Sep-21 12:50N 04°37' W 002°54'1 2.4
2017-Sep-21 12:30N 04°36' W 002°54'0 0.3
2017-Sep-21 11:59N 04°36' W 002°54'3 6.2
2017-Sep-21 11:30N 04°34' W 002°56'2 2.7
2017-Sep-21 10:48N 04°36' W 002°55'1 4.0
2017-Sep-21 10:29N 04°37' W 002°54'1 0.9
2017-Sep-21 09:33N 04°36' W 002°54'0 2.0
2017-Sep-21 09:27N 04°36' W 002°54'0 0.0
2017-Sep-21 09:00N 04°36' W 002°54'0 0.0
2017-Sep-21 08:30N 04°36' W 002°54'0 0.3
2017-Sep-21 07:59N 04°36' W 002°54'0 0.2
2017-Sep-21 07:14N 04°36' W 002°54'0 0.4
2017-Sep-21 06:59N 04°36' W 002°54'0 0.6
2017-Sep-21 06:28N 04°37' W 002°54'1 2.0
2017-Sep-21 05:57N 04°37' W 002°55'2 3.7
2017-Sep-21 05:30N 04°35' W 002°56'1 0.8
2017-Sep-21 03:53N 04°36' W 002°56'1 1.3
2017-Sep-21 03:24N 04°37' W 002°56'1 1.3
2017-Sep-21 02:58N 04°36' W 002°56'1 2.1
2017-Sep-21 02:29N 04°35' W 002°56'1 2.0
2017-Sep-21 02:00N 04°35' W 002°56'0 0.6
2017-Sep-21 01:30N 04°34' W 002°56'1 1.7
2017-Sep-21 01:00N 04°35' W 002°55'1 1.7
2017-Sep-21 00:27N 04°36' W 002°55'2 3.8
2017-Sep-20 23:59N 04°37' W 002°54'1 1.0
2017-Sep-20 23:26N 04°37' W 002°53'1 2.6
2017-Sep-20 23:00N 04°36' W 002°52'2 4.1
2017-Sep-20 22:29N 04°34' W 002°52'1 1.5
2017-Sep-20 21:59N 04°34' W 002°52'1 2.3
2017-Sep-20 21:30N 04°35' W 002°51'1 2.5
2017-Sep-20 20:59N 04°36' W 002°51'1 1.7
2017-Sep-20 20:29N 04°35' W 002°51'4 7.2
2017-Sep-20 19:59N 04°34' W 002°55'3 5.3
2017-Sep-20 19:30N 04°35' W 002°57'1 2.4
2017-Sep-20 18:59N 04°34' W 002°57'1 2.5
2017-Sep-20 18:29N 04°33' W 002°57'3 5.3
2017-Sep-20 17:58N 04°31' W 002°55'2 3.9
2017-Sep-20 17:26N 04°32' W 002°53'3 6.6
2017-Sep-20 17:00N 04°35' W 002°53'1 1.3
2017-Sep-20 16:29N 04°36' W 002°53'0 0.0
2017-Sep-20 16:01N 04°36' W 002°53'0 0.0
2017-Sep-20 15:30N 04°36' W 002°53'0 0.0
2017-Sep-20 14:59N 04°36' W 002°53'0 0.0
2017-Sep-20 14:00N 04°36' W 002°53'0 0.0
2017-Sep-20 13:29N 04°36' W 002°53'0 0.0
2017-Sep-20 12:59N 04°36' W 002°53'0 0.0
2017-Sep-20 12:30N 04°36' W 002°53'0 0.0
2017-Sep-20 12:00N 04°36' W 002°53'0 0.1
2017-Sep-20 11:30N 04°36' W 002°53'0 0.1
2017-Sep-20 10:57N 04°36' W 002°53'0 0.0
2017-Sep-20 10:30N 04°36' W 002°53'0 0.8
2017-Sep-20 09:59N 04°36' W 002°53'1 1.1
2017-Sep-20 09:29N 04°36' W 002°53'0 0.9
2017-Sep-20 09:00N 04°37' W 002°53'0 0.0
2017-Sep-20 08:27N 04°37' W 002°53'0 0.2
2017-Sep-20 08:00N 04°37' W 002°53'0 0.0
2017-Sep-20 07:29N 04°37' W 002°53'0 0.0
2017-Sep-20 07:00N 04°37' W 002°53'1 1.7
2017-Sep-20 06:30N 04°37' W 002°52'2 4.8
2017-Sep-20 05:59N 04°34' W 002°52'1 1.3
2017-Sep-20 05:30N 04°35' W 002°52'1 1.7
2017-Sep-20 05:00N 04°36' W 002°52'1 1.7
2017-Sep-20 04:30N 04°36' W 002°52'1 1.8
2017-Sep-20 03:59N 04°36' W 002°52'1 1.7
2017-Sep-20 03:30N 04°35' W 002°52'1 1.3
2017-Sep-20 03:00N 04°35' W 002°52'1 1.5
2017-Sep-20 02:29N 04°36' W 002°51'0 0.4
2017-Sep-20 01:59N 04°36' W 002°51'1 2.5
2017-Sep-20 01:30N 04°35' W 002°52'1 1.9
2017-Sep-20 01:00N 04°36' W 002°52'1 2.1
2017-Sep-20 00:30N 04°35' W 002°52'1 2.1
2017-Sep-19 23:59N 04°34' W 002°52'1 2.2
2017-Sep-19 23:30N 04°33' W 002°52'1 2.1
2017-Sep-19 23:00N 04°32' W 002°52'0 0.7
2017-Sep-19 22:29N 04°32' W 002°52'1 2.2
2017-Sep-19 21:58N 04°33' W 002°52'5 0.3
2017-Sep-19 04:08N 04°37' W 002°55'0 1.0
2017-Sep-19 03:54N 04°37' W 002°55'1 1.5
2017-Sep-19 03:29N 04°36' W 002°56'1 1.5
2017-Sep-19 03:00N 04°36' W 002°56'1 1.6
2017-Sep-19 02:31N 04°35' W 002°56'1 1.6
2017-Sep-19 02:00N 04°34' W 002°56'1 1.5
2017-Sep-19 01:30N 04°33' W 002°56'3 4.7
2017-Sep-19 00:51N 04°36' W 002°56'2 4.5
2017-Sep-19 00:29N 04°38' W 002°56'1 2.5
2017-Sep-19 00:00N 04°37' W 002°56'1 2.6
2017-Sep-18 23:30N 04°36' W 002°56'1 2.7
2017-Sep-18 23:00N 04°34' W 002°56'1 2.5
2017-Sep-18 22:31N 04°33' W 002°56'4 2.1
2017-Sep-18 20:45N 04°37' W 002°56'1 2.1
2017-Sep-18 20:30N 04°37' W 002°56'1 2.5
2017-Sep-18 20:00N 04°36' W 002°56'1 2.5
2017-Sep-18 19:29N 04°35' W 002°56'1 2.6
2017-Sep-18 18:59N 04°33' W 002°57'1 2.6
2017-Sep-18 18:28N 04°32' W 002°57'1 1.6
2017-Sep-18 17:40N 04°33' W 002°57'5 5.8
2017-Sep-18 16:53N 04°36' W 002°53'0 0.2
2017-Sep-18 16:29N 04°36' W 002°53'0 0.1
2017-Sep-18 16:00N 04°36' W 002°53'0 0.0
2017-Sep-18 15:30N 04°36' W 002°53'0 0.1
2017-Sep-18 15:00N 04°36' W 002°53'2 3.5
2017-Sep-18 14:30N 04°35' W 002°52'1 1.6
2017-Sep-18 13:59N 04°35' W 002°51'1 1.5
2017-Sep-18 13:30N 04°36' W 002°51'0 0.7
2017-Sep-18 12:59N 04°36' W 002°51'1 2.4
2017-Sep-18 12:29N 04°35' W 002°51'1 2.4
2017-Sep-18 11:59N 04°34' W 002°51'1 2.1
2017-Sep-18 11:28N 04°33' W 002°52'1 1.9
2017-Sep-18 11:00N 04°34' W 002°52'1 1.8
2017-Sep-18 10:30N 04°34' W 002°52'1 1.8
2017-Sep-18 09:59N 04°35' W 002°52'1 1.9
2017-Sep-18 09:30N 04°36' W 002°53'0 0.8
2017-Sep-18 08:59N 04°36' W 002°53'1 2.2
2017-Sep-18 08:29N 04°36' W 002°52'1 2.3
2017-Sep-18 07:58N 04°37' W 002°53'1 2.1
2017-Sep-18 07:30N 04°38' W 002°53'1 2.5
2017-Sep-18 07:00N 04°36' W 002°53'1 1.6
2017-Sep-18 06:30N 04°36' W 002°54'2 4.1
2017-Sep-18 05:59N 04°34' W 002°54'1 1.2
2017-Sep-18 05:26N 04°34' W 002°55'1 2.4
2017-Sep-18 04:59N 04°35' W 002°55'0 0.2
2017-Sep-18 04:29N 04°35' W 002°55'0 0.4
2017-Sep-18 03:59N 04°36' W 002°55'0 0.9
2017-Sep-18 03:29N 04°36' W 002°55'0 0.7
2017-Sep-18 02:59N 04°36' W 002°55'0 0.6
2017-Sep-18 02:30N 04°37' W 002°55'0 0.6
2017-Sep-18 02:00N 04°36' W 002°55'3 5.5
2017-Sep-18 01:26N 04°33' W 002°54'2 2.9
2017-Sep-18 00:52N 04°32' W 002°53'0 0.2
2017-Sep-18 00:26N 04°32' W 002°53'0 0.2
2017-Sep-17 23:59N 04°32' W 002°53'0 0.4
2017-Sep-17 22:52N 04°32' W 002°54'0 0.6
2017-Sep-17 22:30N 04°32' W 002°54'0 0.6
2017-Sep-17 22:00N 04°33' W 002°54'0 0.6
2017-Sep-17 21:27N 04°33' W 002°55'0 0.6
2017-Sep-17 20:58N 04°33' W 002°55'1 2.3
2017-Sep-17 20:29N 04°34' W 002°55'1 2.8
2017-Sep-17 20:00N 04°35' W 002°55'1 1.4
2017-Sep-17 19:29N 04°36' W 002°55'1 2.1
2017-Sep-17 18:55N 04°37' W 002°55'1 1.9
2017-Sep-17 18:28N 04°38' W 002°56'1 2.8
2017-Sep-17 18:00N 04°36' W 002°56'3 5.4
2017-Sep-17 17:23N 04°33' W 002°55'2 5.5
2017-Sep-17 16:59N 04°31' W 002°54'2 3.3
2017-Sep-17 16:30N 04°30' W 002°54'1 2.8
2017-Sep-17 15:59N 04°31' W 002°54'3 4.6
2017-Sep-17 15:19N 04°34' W 002°55'1 0.9
2017-Sep-17 14:01N 04°35' W 002°54'0 0.9
2017-Sep-17 13:59N 04°35' W 002°54'0 0.8
2017-Sep-17 13:29N 04°36' W 002°54'1 1.6
2017-Sep-17 12:59N 04°36' W 002°54'0 0.0
2017-Sep-17 12:29N 04°36' W 002°54'0 0.0
2017-Sep-17 11:59N 04°36' W 002°54'0 0.0
2017-Sep-17 11:29N 04°36' W 002°54'0 0.0
2017-Sep-17 10:59N 04°36' W 002°54'0 0.0
2017-Sep-17 10:29N 04°36' W 002°54'0 0.0
2017-Sep-17 10:00N 04°36' W 002°54'0 0.0
2017-Sep-17 09:30N 04°36' W 002°54'0 0.0
2017-Sep-17 08:59N 04°36' W 002°54'0 0.0
2017-Sep-17 08:29N 04°36' W 002°54'0 0.0
2017-Sep-17 08:00N 04°36' W 002°54'0 0.0
2017-Sep-17 07:29N 04°36' W 002°54'0 0.0
2017-Sep-17 06:59N 04°36' W 002°54'1 2.7
2017-Sep-17 06:27N 04°36' W 002°55'0 0.4
2017-Sep-17 05:58N 04°37' W 002°55'0 0.3
2017-Sep-17 05:29N 04°37' W 002°55'1 1.5
2017-Sep-17 04:59N 04°36' W 002°55'1 1.4
2017-Sep-17 04:28N 04°36' W 002°54'1 1.8
2017-Sep-17 04:00N 04°36' W 002°55'0 0.7
2017-Sep-17 03:26N 04°36' W 002°56'0 0.4
2017-Sep-17 02:59N 04°36' W 002°56'0 0.5
2017-Sep-17 02:29N 04°36' W 002°56'0 0.4
2017-Sep-17 02:00N 04°36' W 002°56'0 0.4
2017-Sep-17 01:28N 04°37' W 002°56'0 0.6
2017-Sep-17 01:00N 04°36' W 002°56'1 2.7
2017-Sep-17 00:30N 04°35' W 002°56'1 0.6
2017-Sep-16 22:44N 04°36' W 002°57'1 2.1
2017-Sep-16 22:29N 04°37' W 002°57'0 0.8
2017-Sep-16 22:00N 04°36' W 002°57'1 2.2
2017-Sep-16 21:30N 04°35' W 002°56'1 2.1
2017-Sep-16 20:59N 04°34' W 002°56'0 0.3
2017-Sep-16 20:22N 04°34' W 002°56'1 2.2
2017-Sep-16 19:59N 04°35' W 002°56'1 2.2
2017-Sep-16 19:30N 04°36' W 002°56'1 2.2
2017-Sep-16 18:59N 04°37' W 002°56'1 2.2
2017-Sep-16 18:27N 04°38' W 002°55'1 2.7
2017-Sep-16 18:00N 04°37' W 002°55'1 3.0
2017-Sep-16 17:31N 04°36' W 002°53'0 0.0
2017-Sep-16 17:00N 04°36' W 002°53'1 1.1
2017-Sep-16 16:30N 04°36' W 002°54'0 0.4
2017-Sep-16 15:59N 04°36' W 002°54'1 1.4
2017-Sep-16 15:30N 04°37' W 002°53'1 2.8
2017-Sep-16 15:00N 04°35' W 002°53'0 0.4
2017-Sep-16 14:28N 04°35' W 002°54'0 0.0
2017-Sep-16 13:59N 04°35' W 002°54'0 0.0
2017-Sep-16 13:30N 04°35' W 002°54'0 0.0
2017-Sep-16 13:00N 04°35' W 002°54'0 0.0
2017-Sep-16 12:29N 04°35' W 002°54'0 0.0
2017-Sep-16 12:01N 04°35' W 002°54'0 0.1
2017-Sep-16 11:30N 04°35' W 002°54'0 0.9
2017-Sep-16 11:00N 04°35' W 002°53'1 1.4
2017-Sep-16 10:29N 04°34' W 002°53'1 2.1
2017-Sep-16 10:00N 04°35' W 002°53'1 1.9
2017-Sep-16 09:29N 04°36' W 002°53'1 1.1
2017-Sep-16 08:59N 04°36' W 002°54'1 2.5
2017-Sep-16 08:29N 04°35' W 002°53'0 0.8
2017-Sep-16 07:59N 04°35' W 002°53'0 0.4
2017-Sep-16 07:29N 04°35' W 002°54'1 2.2
2017-Sep-16 07:00N 04°36' W 002°53'0 0.8
2017-Sep-16 06:30N 04°37' W 002°53'2 3.3
2017-Sep-16 05:59N 04°35' W 002°54'1 1.9
2017-Sep-16 05:29N 04°35' W 002°53'1 1.6
2017-Sep-16 05:00N 04°35' W 002°54'1 2.3
2017-Sep-16 04:26N 04°35' W 002°55'0 0.8
2017-Sep-16 03:54N 04°36' W 002°55'0 0.4
2017-Sep-16 03:30N 04°36' W 002°55'1 1.6
2017-Sep-16 02:58N 04°37' W 002°55'0 0.6
2017-Sep-16 02:29N 04°37' W 002°55'0 0.5
2017-Sep-16 01:59N 04°37' W 002°56'2 3.2
2017-Sep-16 01:30N 04°36' W 002°57'1 1.8
2017-Sep-16 00:53N 04°35' W 002°57'1 2.1
2017-Sep-16 00:26N 04°36' W 002°57'2 2.1
2017-Sep-15 23:41N 04°37' W 002°57'1 2.9
2017-Sep-15 23:29N 04°37' W 002°57'3 2.1
2017-Sep-15 22:12N 04°34' W 002°56'0 2.4
2017-Sep-15 22:00N 04°35' W 002°56'1 2.5
2017-Sep-15 21:28N 04°36' W 002°56'1 1.6
2017-Sep-15 20:59N 04°36' W 002°55'3 5.2
2017-Sep-15 20:30N 04°34' W 002°54'2 4.4
2017-Sep-15 19:59N 04°35' W 002°56'2 2.5
2017-Sep-15 19:21N 04°36' W 002°56'1 2.6
2017-Sep-15 18:55N 04°37' W 002°56'2 4.5
2017-Sep-15 18:29N 04°36' W 002°55'3 6.9
2017-Sep-15 17:59N 04°33' W 002°53'1 2.7
2017-Sep-15 17:29N 04°32' W 002°52'2 3.1
2017-Sep-15 16:59N 04°34' W 002°52'2 4.7
2017-Sep-15 16:30N 04°36' W 002°53'0 0.2
2017-Sep-15 16:00N 04°36' W 002°53'0 0.0
2017-Sep-15 15:29N 04°36' W 002°53'0 0.0
2017-Sep-15 15:00N 04°36' W 002°53'0 0.0
2017-Sep-15 14:29N 04°36' W 002°53'0 0.0
2017-Sep-15 13:57N 04°36' W 002°53'0 0.0
2017-Sep-15 13:30N 04°36' W 002°53'0 0.1
2017-Sep-15 13:00N 04°36' W 002°53'0 0.1
2017-Sep-15 12:30N 04°36' W 002°53'0 0.2
2017-Sep-15 11:59N 04°36' W 002°53'0 0.0
2017-Sep-15 11:29N 04°36' W 002°53'0 0.3
2017-Sep-15 11:00N 04°36' W 002°53'0 0.2
2017-Sep-15 10:29N 04°36' W 002°53'0 0.3
2017-Sep-15 10:00N 04°36' W 002°53'0 0.2
2017-Sep-15 09:30N 04°36' W 002°53'0 0.1
2017-Sep-15 08:59N 04°36' W 002°53'0 0.0
2017-Sep-15 08:28N 04°36' W 002°53'1 1.8
2017-Sep-15 07:59N 04°35' W 002°53'1 1.8
2017-Sep-15 07:29N 04°35' W 002°52'1 1.9
2017-Sep-15 07:00N 04°35' W 002°51'1 1.3
2017-Sep-15 06:30N 04°35' W 002°51'1 1.3
2017-Sep-15 05:57N 04°36' W 002°51'0 0.6
2017-Sep-15 05:30N 04°36' W 002°51'1 1.4
2017-Sep-15 04:59N 04°35' W 002°51'1 1.4
2017-Sep-15 04:29N 04°35' W 002°51'1 1.4
2017-Sep-15 03:59N 04°34' W 002°52'1 1.2
2017-Sep-15 03:30N 04°33' W 002°52'0 0.7
2017-Sep-15 03:00N 04°34' W 002°52'1 1.3
2017-Sep-15 02:29N 04°34' W 002°51'1 1.4
2017-Sep-15 01:58N 04°35' W 002°51'0 0.7
2017-Sep-15 01:30N 04°35' W 002°51'1 2.7
2017-Sep-15 00:59N 04°34' W 002°52'1 1.8
2017-Sep-15 00:29N 04°33' W 002°52'0 0.8
2017-Sep-15 00:00N 04°33' W 002°51'1 2.1
2017-Sep-14 23:30N 04°34' W 002°51'1 2.0
2017-Sep-14 22:59N 04°35' W 002°51'1 1.6
2017-Sep-14 22:30N 04°35' W 002°51'1 2.1
2017-Sep-14 22:00N 04°34' W 002°52'1 2.1
2017-Sep-14 21:29N 04°34' W 002°53'1 2.1
2017-Sep-14 21:00N 04°33' W 002°54'1 2.2
2017-Sep-14 20:28N 04°33' W 002°55'1 2.9
2017-Sep-14 20:00N 04°33' W 002°57'2 3.6
2017-Sep-14 19:29N 04°31' W 002°58'6 4.2
2017-Sep-14 18:04N 04°31' W 002°52'0 2.7
2017-Sep-14 18:00N 04°31' W 002°52'2 4.0
2017-Sep-14 17:25N 04°32' W 002°50'2 5.3
2017-Sep-14 16:57N 04°34' W 002°50'1 2.0
2017-Sep-14 16:29N 04°33' W 002°50'1 2.0
2017-Sep-14 15:59N 04°33' W 002°51'1 2.1
2017-Sep-14 15:29N 04°32' W 002°51'2 4.6
2017-Sep-14 14:59N 04°34' W 002°51'1 1.1
2017-Sep-14 14:29N 04°34' W 002°51'1 1.4
2017-Sep-14 14:00N 04°35' W 002°51'0 1.0
2017-Sep-14 13:30N 04°35' W 002°51'1 1.6
2017-Sep-14 12:59N 04°35' W 002°51'0 0.2
2017-Sep-14 12:06N 04°34' W 002°51'0 3.7
2017-Sep-14 12:00N 04°35' W 002°51'1 1.2
2017-Sep-14 11:27N 04°35' W 002°51'1 1.9
2017-Sep-14 11:00N 04°35' W 002°51'1 1.9
2017-Sep-14 10:27N 04°34' W 002°51'1 1.8
2017-Sep-14 09:59N 04°33' W 002°51'0 1.0
2017-Sep-14 09:30N 04°33' W 002°51'1 2.0
2017-Sep-14 09:00N 04°34' W 002°51'1 2.2
2017-Sep-14 08:27N 04°35' W 002°51'0 0.1
2017-Sep-14 08:00N 04°35' W 002°51'1 2.4
2017-Sep-14 07:29N 04°34' W 002°51'1 2.9
2017-Sep-14 07:00N 04°33' W 002°51'1 1.1
2017-Sep-14 06:28N 04°33' W 002°51'2 3.8
2017-Sep-14 05:59N 04°35' W 002°53'3 5.8
2017-Sep-14 05:29N 04°36' W 002°55'0 0.8
2017-Sep-14 04:59N 04°36' W 002°55'0 0.5
2017-Sep-14 04:29N 04°36' W 002°55'1 1.0
2017-Sep-14 03:42N 04°37' W 002°55'1 1.0
2017-Sep-14 03:04N 04°37' W 002°55'0 1.1
2017-Sep-14 02:55N 04°37' W 002°56'0 0.9
2017-Sep-14 02:27N 04°37' W 002°56'1 2.0
2017-Sep-14 01:55N 04°38' W 002°55'1 1.1
2017-Sep-14 01:28N 04°38' W 002°56'1 2.4
2017-Sep-14 00:59N 04°37' W 002°56'2 3.5
2017-Sep-14 00:29N 04°35' W 002°55'2 3.1
2017-Sep-14 00:00N 04°34' W 002°55'1 1.4
2017-Sep-13 23:25N 04°35' W 002°55'1 2.3
2017-Sep-13 22:55N 04°36' W 002°55'1 2.0
2017-Sep-13 22:24N 04°37' W 002°55'2 3.9
2017-Sep-13 21:59N 04°35' W 002°55'3 4.0
2017-Sep-13 21:12N 04°33' W 002°53'1 3.6
2017-Sep-13 21:00N 04°34' W 002°52'2 3.2
2017-Sep-13 20:30N 04°36' W 002°52'2 3.6
2017-Sep-13 20:00N 04°34' W 002°53'2 4.5
2017-Sep-13 19:29N 04°35' W 002°56'3 3.8
2017-Sep-13 18:42N 04°38' W 002°56'1 5.1
2017-Sep-13 18:27N 04°37' W 002°55'3 5.9
2017-Sep-13 18:00N 04°35' W 002°55'1 1.7
2017-Sep-13 17:28N 04°34' W 002°55'3 6.4
2017-Sep-13 16:59N 04°36' W 002°53'1 1.2
2017-Sep-13 16:28N 04°36' W 002°53'0 0.0
2017-Sep-13 15:59N 04°36' W 002°53'0 0.0
2017-Sep-13 15:30N 04°36' W 002°53'0 0.0
2017-Sep-13 14:59N 04°36' W 002°53'0 0.0
2017-Sep-13 14:30N 04°36' W 002°53'0 0.0
2017-Sep-13 13:57N 04°36' W 002°53'0 0.0
2017-Sep-13 13:26N 04°36' W 002°53'0 0.0
2017-Sep-13 12:58N 04°36' W 002°53'0 0.1
2017-Sep-13 12:30N 04°36' W 002°53'0 0.0
2017-Sep-13 11:59N 04°36' W 002°53'0 0.0
2017-Sep-13 11:28N 04°36' W 002°53'0 0.0
2017-Sep-13 11:00N 04°36' W 002°53'1 0.1
2017-Sep-13 06:21N 04°35' W 002°53'1 1.4
2017-Sep-13 05:45N 04°35' W 002°54'0 1.4
2017-Sep-13 05:30N 04°35' W 002°54'2 0.6
2017-Sep-13 02:27N 04°36' W 002°55'2 3.9
2017-Sep-13 02:00N 04°37' W 002°53'1 1.4
2017-Sep-13 01:29N 04°37' W 002°54'1 1.6
2017-Sep-13 00:59N 04°36' W 002°54'2 2.8
2017-Sep-13 00:27N 04°35' W 002°53'1 1.6
2017-Sep-12 23:51N 04°36' W 002°53'2 5.9
2017-Sep-12 23:30N 04°35' W 002°55'1 1.9
2017-Sep-12 22:49N 04°36' W 002°56'1 1.5
2017-Sep-12 22:29N 04°36' W 002°56'1 1.4
2017-Sep-12 21:56N 04°37' W 002°56'1 1.6
2017-Sep-12 21:30N 04°38' W 002°55'1 2.3
2017-Sep-12 20:59N 04°39' W 002°55'2 4.4
2017-Sep-12 20:30N 04°37' W 002°55'3 5.9
2017-Sep-12 19:59N 04°34' W 002°56'1 2.0
2017-Sep-12 19:24N 04°33' W 002°56'3 1.7
2017-Sep-12 17:25N 04°36' W 002°56'1 1.8
2017-Sep-12 16:59N 04°35' W 002°56'1 2.1
2017-Sep-12 16:29N 04°34' W 002°55'1 2.7
2017-Sep-12 15:56N 04°35' W 002°54'2 4.3
2017-Sep-12 15:30N 04°34' W 002°56'0 0.3
2017-Sep-12 14:58N 04°35' W 002°56'1 1.1
2017-Sep-12 14:29N 04°35' W 002°55'2 1.4
2017-Sep-12 12:55N 04°37' W 002°54'1 1.5
2017-Sep-12 12:17N 04°37' W 002°53'0 1.5
2017-Sep-12 11:59N 04°38' W 002°53'1 1.9
2017-Sep-12 11:30N 04°37' W 002°53'1 2.3
2017-Sep-12 11:00N 04°36' W 002°53'1 2.4
2017-Sep-12 10:30N 04°35' W 002°53'1 0.9
2017-Sep-12 09:19N 04°36' W 002°53'1 1.5
2017-Sep-12 08:58N 04°36' W 002°52'0 0.7
2017-Sep-12 08:30N 04°36' W 002°52'0 0.5
2017-Sep-12 08:00N 04°36' W 002°52'1 1.5
2017-Sep-12 07:29N 04°35' W 002°52'1 1.3
2017-Sep-12 06:54N 04°35' W 002°52'1 1.3
2017-Sep-12 06:30N 04°34' W 002°52'1 1.8
2017-Sep-12 06:00N 04°33' W 002°52'3 2.6
2017-Sep-12 04:44N 04°36' W 002°53'1 2.3
2017-Sep-12 04:25N 04°37' W 002°53'1 2.1
2017-Sep-12 04:00N 04°36' W 002°52'11 4.1
2017-Sep-12 01:19N 04°32' W 002°42'2 5.4
2017-Sep-12 01:00N 04°32' W 002°41'3 5.4
2017-Sep-12 00:27N 04°32' W 002°38'3 5.7
2017-Sep-11 23:59N 04°32' W 002°35'5 9.8
2017-Sep-11 23:30N 04°33' W 002°30'5 9.8
2017-Sep-11 23:00N 04°33' W 002°25'5 9.7
2017-Sep-11 22:30N 04°34' W 002°21'5 9.7
2017-Sep-11 21:59N 04°34' W 002°16'5 9.6
2017-Sep-11 21:30N 04°34' W 002°11'5 9.8
2017-Sep-11 20:59N 04°35' W 002°06'  
Track history (hours):
 
Tides and Currents Weather Stations Pressure Air Temp Water Temp Dewpoint Dewpoint Depression Visibility Wind Speed Wind Dir Waves Ship Positions

Pacific Peacock

Last reported at 2017-Sep-21 15:33 UTC. Time now 2017-Sep-22 02:39 UTC.
Position N 04°34' W 003°08'.

Length 58 m; draft 4.5 m.

Type: Other ship. MMSI: 563274000.

Date/timePositionNaut miles runAvg speedWind from/ knotsBaromVisibWave heightAir tempDewpointWater temp
2017-Sep-21 15:33N 04°34' W 003°08'14 5.1
2017-Sep-21 12:50N 04°37' W 002°54'1 2.4
2017-Sep-21 12:30N 04°36' W 002°54'0 0.3
2017-Sep-21 11:59N 04°36' W 002°54'3 6.2
2017-Sep-21 11:30N 04°34' W 002°56'2 2.7
2017-Sep-21 10:48N 04°36' W 002°55'1 4.0
2017-Sep-21 10:29N 04°37' W 002°54'1 0.9
2017-Sep-21 09:33N 04°36' W 002°54'0 2.0
2017-Sep-21 09:27N 04°36' W 002°54'0 0.0
2017-Sep-21 09:00N 04°36' W 002°54'0 0.0
2017-Sep-21 08:30N 04°36' W 002°54'0 0.3
2017-Sep-21 07:59N 04°36' W 002°54'0 0.2
2017-Sep-21 07:14N 04°36' W 002°54'0 0.4
2017-Sep-21 06:59N 04°36' W 002°54'0 0.6
2017-Sep-21 06:28N 04°37' W 002°54'1 2.0
2017-Sep-21 05:57N 04°37' W 002°55'2 3.7
2017-Sep-21 05:30N 04°35' W 002°56'1 0.8
2017-Sep-21 03:53N 04°36' W 002°56'1 1.3
2017-Sep-21 03:24N 04°37' W 002°56'1 1.3
2017-Sep-21 02:58N 04°36' W 002°56'1 2.1
2017-Sep-21 02:29N 04°35' W 002°56'1 2.0
2017-Sep-21 02:00N 04°35' W 002°56'0 0.6
2017-Sep-21 01:30N 04°34' W 002°56'1 1.7
2017-Sep-21 01:00N 04°35' W 002°55'1 1.7
2017-Sep-21 00:27N 04°36' W 002°55'2 3.8
2017-Sep-20 23:59N 04°37' W 002°54'1 1.0
2017-Sep-20 23:26N 04°37' W 002°53'1 2.6
2017-Sep-20 23:00N 04°36' W 002°52'2 4.1
2017-Sep-20 22:29N 04°34' W 002°52'1 1.5
2017-Sep-20 21:59N 04°34' W 002°52'1 2.3
2017-Sep-20 21:30N 04°35' W 002°51'1 2.5
2017-Sep-20 20:59N 04°36' W 002°51'1 1.7
2017-Sep-20 20:29N 04°35' W 002°51'4 7.2
2017-Sep-20 19:59N 04°34' W 002°55'3 5.3
2017-Sep-20 19:30N 04°35' W 002°57'1 2.4
2017-Sep-20 18:59N 04°34' W 002°57'1 2.5
2017-Sep-20 18:29N 04°33' W 002°57'3 5.3
2017-Sep-20 17:58N 04°31' W 002°55'2 3.9
2017-Sep-20 17:26N 04°32' W 002°53'3 6.6
2017-Sep-20 17:00N 04°35' W 002°53'1 1.3
2017-Sep-20 16:29N 04°36' W 002°53'0 0.0
2017-Sep-20 16:01N 04°36' W 002°53'0 0.0
2017-Sep-20 15:30N 04°36' W 002°53'0 0.0
2017-Sep-20 14:59N 04°36' W 002°53'0 0.0
2017-Sep-20 14:00N 04°36' W 002°53'0 0.0
2017-Sep-20 13:29N 04°36' W 002°53'0 0.0
2017-Sep-20 12:59N 04°36' W 002°53'0 0.0
2017-Sep-20 12:30N 04°36' W 002°53'0 0.0
2017-Sep-20 12:00N 04°36' W 002°53'0 0.1
2017-Sep-20 11:30N 04°36' W 002°53'0 0.1
2017-Sep-20 10:57N 04°36' W 002°53'0 0.0
2017-Sep-20 10:30N 04°36' W 002°53'0 0.8
2017-Sep-20 09:59N 04°36' W 002°53'1 1.1
2017-Sep-20 09:29N 04°36' W 002°53'0 0.9
2017-Sep-20 09:00N 04°37' W 002°53'0 0.0
2017-Sep-20 08:27N 04°37' W 002°53'0 0.2
2017-Sep-20 08:00N 04°37' W 002°53'0 0.0
2017-Sep-20 07:29N 04°37' W 002°53'0 0.0
2017-Sep-20 07:00N 04°37' W 002°53'1 1.7
2017-Sep-20 06:30N 04°37' W 002°52'2 4.8
2017-Sep-20 05:59N 04°34' W 002°52'1 1.3
2017-Sep-20 05:30N 04°35' W 002°52'1 1.7
2017-Sep-20 05:00N 04°36' W 002°52'1 1.7
2017-Sep-20 04:30N 04°36' W 002°52'1 1.8
2017-Sep-20 03:59N 04°36' W 002°52'1 1.7
2017-Sep-20 03:30N 04°35' W 002°52'1 1.3
2017-Sep-20 03:00N 04°35' W 002°52'1 1.5
2017-Sep-20 02:29N 04°36' W 002°51'0 0.4
2017-Sep-20 01:59N 04°36' W 002°51'1 2.5
2017-Sep-20 01:30N 04°35' W 002°52'1 1.9
2017-Sep-20 01:00N 04°36' W 002°52'1 2.1
2017-Sep-20 00:30N 04°35' W 002°52'1 2.1
2017-Sep-19 23:59N 04°34' W 002°52'1 2.2
2017-Sep-19 23:30N 04°33' W 002°52'1 2.1
2017-Sep-19 23:00N 04°32' W 002°52'0 0.7
2017-Sep-19 22:29N 04°32' W 002°52'1 2.2
2017-Sep-19 21:58N 04°33' W 002°52'5 0.3
2017-Sep-19 04:08N 04°37' W 002°55'0 1.0
2017-Sep-19 03:54N 04°37' W 002°55'1 1.5
2017-Sep-19 03:29N 04°36' W 002°56'1 1.5
2017-Sep-19 03:00N 04°36' W 002°56'1 1.6
2017-Sep-19 02:31N 04°35' W 002°56'1 1.6
2017-Sep-19 02:00N 04°34' W 002°56'1 1.5
2017-Sep-19 01:30N 04°33' W 002°56'3 4.7
2017-Sep-19 00:51N 04°36' W 002°56'2 4.5
2017-Sep-19 00:29N 04°38' W 002°56'1 2.5
2017-Sep-19 00:00N 04°37' W 002°56'1 2.6
2017-Sep-18 23:30N 04°36' W 002°56'1 2.7
2017-Sep-18 23:00N 04°34' W 002°56'1 2.5
2017-Sep-18 22:31N 04°33' W 002°56'4 2.1
2017-Sep-18 20:45N 04°37' W 002°56'1 2.1
2017-Sep-18 20:30N 04°37' W 002°56'1 2.5
2017-Sep-18 20:00N 04°36' W 002°56'1 2.5
2017-Sep-18 19:29N 04°35' W 002°56'1 2.6
2017-Sep-18 18:59N 04°33' W 002°57'1 2.6
2017-Sep-18 18:28N 04°32' W 002°57'1 1.6
2017-Sep-18 17:40N 04°33' W 002°57'5 5.8
2017-Sep-18 16:53N 04°36' W 002°53'0 0.2
2017-Sep-18 16:29N 04°36' W 002°53'0 0.1
2017-Sep-18 16:00N 04°36' W 002°53'0 0.0
2017-Sep-18 15:30N 04°36' W 002°53'0 0.1
2017-Sep-18 15:00N 04°36' W 002°53'2 3.5
2017-Sep-18 14:30N 04°35' W 002°52'1 1.6
2017-Sep-18 13:59N 04°35' W 002°51'1 1.5
2017-Sep-18 13:30N 04°36' W 002°51'0 0.7
2017-Sep-18 12:59N 04°36' W 002°51'1 2.4
2017-Sep-18 12:29N 04°35' W 002°51'1 2.4
2017-Sep-18 11:59N 04°34' W 002°51'1 2.1
2017-Sep-18 11:28N 04°33' W 002°52'1 1.9
2017-Sep-18 11:00N 04°34' W 002°52'1 1.8
2017-Sep-18 10:30N 04°34' W 002°52'1 1.8
2017-Sep-18 09:59N 04°35' W 002°52'1 1.9
2017-Sep-18 09:30N 04°36' W 002°53'0 0.8
2017-Sep-18 08:59N 04°36' W 002°53'1 2.2
2017-Sep-18 08:29N 04°36' W 002°52'1 2.3
2017-Sep-18 07:58N 04°37' W 002°53'1 2.1
2017-Sep-18 07:30N 04°38' W 002°53'1 2.5
2017-Sep-18 07:00N 04°36' W 002°53'1 1.6
2017-Sep-18 06:30N 04°36' W 002°54'2 4.1
2017-Sep-18 05:59N 04°34' W 002°54'1 1.2
2017-Sep-18 05:26N 04°34' W 002°55'1 2.4
2017-Sep-18 04:59N 04°35' W 002°55'0 0.2
2017-Sep-18 04:29N 04°35' W 002°55'0 0.4
2017-Sep-18 03:59N 04°36' W 002°55'0 0.9
2017-Sep-18 03:29N 04°36' W 002°55'0 0.7
2017-Sep-18 02:59N 04°36' W 002°55'0 0.6
2017-Sep-18 02:30N 04°37' W 002°55'0 0.6
2017-Sep-18 02:00N 04°36' W 002°55'3 5.5
2017-Sep-18 01:26N 04°33' W 002°54'2 2.9
2017-Sep-18 00:52N 04°32' W 002°53'0 0.2
2017-Sep-18 00:26N 04°32' W 002°53'0 0.2
2017-Sep-17 23:59N 04°32' W 002°53'0 0.4
2017-Sep-17 22:52N 04°32' W 002°54'0 0.6
2017-Sep-17 22:30N 04°32' W 002°54'0 0.6
2017-Sep-17 22:00N 04°33' W 002°54'0 0.6
2017-Sep-17 21:27N 04°33' W 002°55'0 0.6
2017-Sep-17 20:58N 04°33' W 002°55'1 2.3
2017-Sep-17 20:29N 04°34' W 002°55'1 2.8
2017-Sep-17 20:00N 04°35' W 002°55'1 1.4
2017-Sep-17 19:29N 04°36' W 002°55'1 2.1
2017-Sep-17 18:55N 04°37' W 002°55'1 1.9
2017-Sep-17 18:28N 04°38' W 002°56'1 2.8
2017-Sep-17 18:00N 04°36' W 002°56'3 5.4
2017-Sep-17 17:23N 04°33' W 002°55'2 5.5
2017-Sep-17 16:59N 04°31' W 002°54'2 3.3
2017-Sep-17 16:30N 04°30' W 002°54'1 2.8
2017-Sep-17 15:59N 04°31' W 002°54'3 4.6
2017-Sep-17 15:19N 04°34' W 002°55'1 0.9
2017-Sep-17 14:01N 04°35' W 002°54'0 0.9
2017-Sep-17 13:59N 04°35' W 002°54'0 0.8
2017-Sep-17 13:29N 04°36' W 002°54'1 1.6
2017-Sep-17 12:59N 04°36' W 002°54'0 0.0
2017-Sep-17 12:29N 04°36' W 002°54'0 0.0
2017-Sep-17 11:59N 04°36' W 002°54'0 0.0
2017-Sep-17 11:29N 04°36' W 002°54'0 0.0
2017-Sep-17 10:59N 04°36' W 002°54'0 0.0
2017-Sep-17 10:29N 04°36' W 002°54'0 0.0
2017-Sep-17 10:00N 04°36' W 002°54'0 0.0
2017-Sep-17 09:30N 04°36' W 002°54'0 0.0
2017-Sep-17 08:59N 04°36' W 002°54'0 0.0
2017-Sep-17 08:29N 04°36' W 002°54'0 0.0
2017-Sep-17 08:00N 04°36' W 002°54'0 0.0
2017-Sep-17 07:29N 04°36' W 002°54'0 0.0
2017-Sep-17 06:59N 04°36' W 002°54'1 2.7
2017-Sep-17 06:27N 04°36' W 002°55'0 0.4
2017-Sep-17 05:58N 04°37' W 002°55'0 0.3
2017-Sep-17 05:29N 04°37' W 002°55'1 1.5
2017-Sep-17 04:59N 04°36' W 002°55'1 1.4
2017-Sep-17 04:28N 04°36' W 002°54'1 1.8
2017-Sep-17 04:00N 04°36' W 002°55'0 0.7
2017-Sep-17 03:26N 04°36' W 002°56'0 0.4
2017-Sep-17 02:59N 04°36' W 002°56'0 0.5
2017-Sep-17 02:29N 04°36' W 002°56'0 0.4
2017-Sep-17 02:00N 04°36' W 002°56'0 0.4
2017-Sep-17 01:28N 04°37' W 002°56'0 0.6
2017-Sep-17 01:00N 04°36' W 002°56'1 2.7
2017-Sep-17 00:30N 04°35' W 002°56'1 0.6
2017-Sep-16 22:44N 04°36' W 002°57'1 2.1
2017-Sep-16 22:29N 04°37' W 002°57'0 0.8
2017-Sep-16 22:00N 04°36' W 002°57'1 2.2
2017-Sep-16 21:30N 04°35' W 002°56'1 2.1
2017-Sep-16 20:59N 04°34' W 002°56'0 0.3
2017-Sep-16 20:22N 04°34' W 002°56'1 2.2
2017-Sep-16 19:59N 04°35' W 002°56'1 2.2
2017-Sep-16 19:30N 04°36' W 002°56'1 2.2
2017-Sep-16 18:59N 04°37' W 002°56'1 2.2
2017-Sep-16 18:27N 04°38' W 002°55'1 2.7
2017-Sep-16 18:00N 04°37' W 002°55'1 3.0
2017-Sep-16 17:31N 04°36' W 002°53'0 0.0
2017-Sep-16 17:00N 04°36' W 002°53'1 1.1
2017-Sep-16 16:30N 04°36' W 002°54'0 0.4
2017-Sep-16 15:59N 04°36' W 002°54'1 1.4
2017-Sep-16 15:30N 04°37' W 002°53'1 2.8
2017-Sep-16 15:00N 04°35' W 002°53'0 0.4
2017-Sep-16 14:28N 04°35' W 002°54'0 0.0
2017-Sep-16 13:59N 04°35' W 002°54'0 0.0
2017-Sep-16 13:30N 04°35' W 002°54'0 0.0
2017-Sep-16 13:00N 04°35' W 002°54'0 0.0
2017-Sep-16 12:29N 04°35' W 002°54'0 0.0
2017-Sep-16 12:01N 04°35' W 002°54'0 0.1
2017-Sep-16 11:30N 04°35' W 002°54'0 0.9
2017-Sep-16 11:00N 04°35' W 002°53'1 1.4
2017-Sep-16 10:29N 04°34' W 002°53'1 2.1
2017-Sep-16 10:00N 04°35' W 002°53'1 1.9
2017-Sep-16 09:29N 04°36' W 002°53'1 1.1
2017-Sep-16 08:59N 04°36' W 002°54'1 2.5
2017-Sep-16 08:29N 04°35' W 002°53'0 0.8
2017-Sep-16 07:59N 04°35' W 002°53'0 0.4
2017-Sep-16 07:29N 04°35' W 002°54'1 2.2
2017-Sep-16 07:00N 04°36' W 002°53'0 0.8
2017-Sep-16 06:30N 04°37' W 002°53'2 3.3
2017-Sep-16 05:59N 04°35' W 002°54'1 1.9
2017-Sep-16 05:29N 04°35' W 002°53'1 1.6
2017-Sep-16 05:00N 04°35' W 002°54'1 2.3
2017-Sep-16 04:26N 04°35' W 002°55'0 0.8
2017-Sep-16 03:54N 04°36' W 002°55'0 0.4
2017-Sep-16 03:30N 04°36' W 002°55'1 1.6
2017-Sep-16 02:58N 04°37' W 002°55'0 0.6
2017-Sep-16 02:29N 04°37' W 002°55'0 0.5
2017-Sep-16 01:59N 04°37' W 002°56'2 3.2
2017-Sep-16 01:30N 04°36' W 002°57'1 1.8
2017-Sep-16 00:53N 04°35' W 002°57'1 2.1
2017-Sep-16 00:26N 04°36' W 002°57'2 2.1
2017-Sep-15 23:41N 04°37' W 002°57'1 2.9
2017-Sep-15 23:29N 04°37' W 002°57'3 2.1
2017-Sep-15 22:12N 04°34' W 002°56'0 2.4
2017-Sep-15 22:00N 04°35' W 002°56'1 2.5
2017-Sep-15 21:28N 04°36' W 002°56'1 1.6
2017-Sep-15 20:59N 04°36' W 002°55'3 5.2
2017-Sep-15 20:30N 04°34' W 002°54'2 4.4
2017-Sep-15 19:59N 04°35' W 002°56'2 2.5
2017-Sep-15 19:21N 04°36' W 002°56'1 2.6
2017-Sep-15 18:55N 04°37' W 002°56'2 4.5
2017-Sep-15 18:29N 04°36' W 002°55'3 6.9
2017-Sep-15 17:59N 04°33' W 002°53'1 2.7
2017-Sep-15 17:29N 04°32' W 002°52'2 3.1
2017-Sep-15 16:59N 04°34' W 002°52'2 4.7
2017-Sep-15 16:30N 04°36' W 002°53'0 0.2
2017-Sep-15 16:00N 04°36' W 002°53'0 0.0
2017-Sep-15 15:29N 04°36' W 002°53'0 0.0
2017-Sep-15 15:00N 04°36' W 002°53'0 0.0
2017-Sep-15 14:29N 04°36' W 002°53'0 0.0
2017-Sep-15 13:57N 04°36' W 002°53'0 0.0
2017-Sep-15 13:30N 04°36' W 002°53'0 0.1
2017-Sep-15 13:00N 04°36' W 002°53'0 0.1
2017-Sep-15 12:30N 04°36' W 002°53'0 0.2
2017-Sep-15 11:59N 04°36' W 002°53'0 0.0
2017-Sep-15 11:29N 04°36' W 002°53'0 0.3
2017-Sep-15 11:00N 04°36' W 002°53'0 0.2
2017-Sep-15 10:29N 04°36' W 002°53'0 0.3
2017-Sep-15 10:00N 04°36' W 002°53'0 0.2
2017-Sep-15 09:30N 04°36' W 002°53'0 0.1
2017-Sep-15 08:59N 04°36' W 002°53'0 0.0
2017-Sep-15 08:28N 04°36' W 002°53'1 1.8
2017-Sep-15 07:59N 04°35' W 002°53'1 1.8
2017-Sep-15 07:29N 04°35' W 002°52'1 1.9
2017-Sep-15 07:00N 04°35' W 002°51'1 1.3
2017-Sep-15 06:30N 04°35' W 002°51'1 1.3
2017-Sep-15 05:57N 04°36' W 002°51'0 0.6
2017-Sep-15 05:30N 04°36' W 002°51'1 1.4
2017-Sep-15 04:59N 04°35' W 002°51'1 1.4
2017-Sep-15 04:29N 04°35' W 002°51'1 1.4
2017-Sep-15 03:59N 04°34' W 002°52'1 1.2
2017-Sep-15 03:30N 04°33' W 002°52'0 0.7
2017-Sep-15 03:00N 04°34' W 002°52'1 1.3
2017-Sep-15 02:29N 04°34' W 002°51'1 1.4
2017-Sep-15 01:58N 04°35' W 002°51'0 0.7
2017-Sep-15 01:30N 04°35' W 002°51'1 2.7
2017-Sep-15 00:59N 04°34' W 002°52'1 1.8
2017-Sep-15 00:29N 04°33' W 002°52'0 0.8
2017-Sep-15 00:00N 04°33' W 002°51'1 2.1
2017-Sep-14 23:30N 04°34' W 002°51'1 2.0
2017-Sep-14 22:59N 04°35' W 002°51'1 1.6
2017-Sep-14 22:30N 04°35' W 002°51'1 2.1
2017-Sep-14 22:00N 04°34' W 002°52'1 2.1
2017-Sep-14 21:29N 04°34' W 002°53'1 2.1
2017-Sep-14 21:00N 04°33' W 002°54'1 2.2
2017-Sep-14 20:28N 04°33' W 002°55'1 2.9
2017-Sep-14 20:00N 04°33' W 002°57'2 3.6
2017-Sep-14 19:29N 04°31' W 002°58'6 4.2
2017-Sep-14 18:04N 04°31' W 002°52'0 2.7
2017-Sep-14 18:00N 04°31' W 002°52'2 4.0
2017-Sep-14 17:25N 04°32' W 002°50'2 5.3
2017-Sep-14 16:57N 04°34' W 002°50'1 2.0
2017-Sep-14 16:29N 04°33' W 002°50'1 2.0
2017-Sep-14 15:59N 04°33' W 002°51'1 2.1
2017-Sep-14 15:29N 04°32' W 002°51'2 4.6
2017-Sep-14 14:59N 04°34' W 002°51'1 1.1
2017-Sep-14 14:29N 04°34' W 002°51'1 1.4
2017-Sep-14 14:00N 04°35' W 002°51'0 1.0
2017-Sep-14 13:30N 04°35' W 002°51'1 1.6
2017-Sep-14 12:59N 04°35' W 002°51'0 0.2
2017-Sep-14 12:06N 04°34' W 002°51'0 3.7
2017-Sep-14 12:00N 04°35' W 002°51'1 1.2
2017-Sep-14 11:27N 04°35' W 002°51'1 1.9
2017-Sep-14 11:00N 04°35' W 002°51'1 1.9
2017-Sep-14 10:27N 04°34' W 002°51'1 1.8
2017-Sep-14 09:59N 04°33' W 002°51'0 1.0
2017-Sep-14 09:30N 04°33' W 002°51'1 2.0
2017-Sep-14 09:00N 04°34' W 002°51'1 2.2
2017-Sep-14 08:27N 04°35' W 002°51'0 0.1
2017-Sep-14 08:00N 04°35' W 002°51'1 2.4
2017-Sep-14 07:29N 04°34' W 002°51'1 2.9
2017-Sep-14 07:00N 04°33' W 002°51'1 1.1
2017-Sep-14 06:28N 04°33' W 002°51'2 3.8
2017-Sep-14 05:59N 04°35' W 002°53'3 5.8
2017-Sep-14 05:29N 04°36' W 002°55'0 0.8
2017-Sep-14 04:59N 04°36' W 002°55'0 0.5
2017-Sep-14 04:29N 04°36' W 002°55'1 1.0
2017-Sep-14 03:42N 04°37' W 002°55'1 1.0
2017-Sep-14 03:04N 04°37' W 002°55'0 1.1
2017-Sep-14 02:55N 04°37' W 002°56'0 0.9
2017-Sep-14 02:27N 04°37' W 002°56'1 2.0
2017-Sep-14 01:55N 04°38' W 002°55'1 1.1
2017-Sep-14 01:28N 04°38' W 002°56'1 2.4
2017-Sep-14 00:59N 04°37' W 002°56'2 3.5
2017-Sep-14 00:29N 04°35' W 002°55'2 3.1
2017-Sep-14 00:00N 04°34' W 002°55'1 1.4
2017-Sep-13 23:25N 04°35' W 002°55'1 2.3
2017-Sep-13 22:55N 04°36' W 002°55'1 2.0
2017-Sep-13 22:24N 04°37' W 002°55'2 3.9
2017-Sep-13 21:59N 04°35' W 002°55'3 4.0
2017-Sep-13 21:12N 04°33' W 002°53'1 3.6
2017-Sep-13 21:00N 04°34' W 002°52'2 3.2
2017-Sep-13 20:30N 04°36' W 002°52'2 3.6
2017-Sep-13 20:00N 04°34' W 002°53'2 4.5
2017-Sep-13 19:29N 04°35' W 002°56'3 3.8
2017-Sep-13 18:42N 04°38' W 002°56'1 5.1
2017-Sep-13 18:27N 04°37' W 002°55'3 5.9
2017-Sep-13 18:00N 04°35' W 002°55'1 1.7
2017-Sep-13 17:28N 04°34' W 002°55'3 6.4
2017-Sep-13 16:59N 04°36' W 002°53'1 1.2
2017-Sep-13 16:28N 04°36' W 002°53'0 0.0
2017-Sep-13 15:59N 04°36' W 002°53'0 0.0
2017-Sep-13 15:30N 04°36' W 002°53'0 0.0
2017-Sep-13 14:59N 04°36' W 002°53'0 0.0
2017-Sep-13 14:30N 04°36' W 002°53'0 0.0
2017-Sep-13 13:57N 04°36' W 002°53'0 0.0
2017-Sep-13 13:26N 04°36' W 002°53'0 0.0
2017-Sep-13 12:58N 04°36' W 002°53'0 0.1
2017-Sep-13 12:30N 04°36' W 002°53'0 0.0
2017-Sep-13 11:59N 04°36' W 002°53'0 0.0
2017-Sep-13 11:28N 04°36' W 002°53'0 0.0
2017-Sep-13 11:00N 04°36' W 002°53'1 0.1
2017-Sep-13 06:21N 04°35' W 002°53'1 1.4
2017-Sep-13 05:45N 04°35' W 002°54'0 1.4
2017-Sep-13 05:30N 04°35' W 002°54'2 0.6
2017-Sep-13 02:27N 04°36' W 002°55'2 3.9
2017-Sep-13 02:00N 04°37' W 002°53'1 1.4
2017-Sep-13 01:29N 04°37' W 002°54'1 1.6
2017-Sep-13 00:59N 04°36' W 002°54'2 2.8
2017-Sep-13 00:27N 04°35' W 002°53'1 1.6
2017-Sep-12 23:51N 04°36' W 002°53'2 5.9
2017-Sep-12 23:30N 04°35' W 002°55'1 1.9
2017-Sep-12 22:49N 04°36' W 002°56'1 1.5
2017-Sep-12 22:29N 04°36' W 002°56'1 1.4
2017-Sep-12 21:56N 04°37' W 002°56'1 1.6
2017-Sep-12 21:30N 04°38' W 002°55'1 2.3
2017-Sep-12 20:59N 04°39' W 002°55'2 4.4
2017-Sep-12 20:30N 04°37' W 002°55'3 5.9
2017-Sep-12 19:59N 04°34' W 002°56'1 2.0
2017-Sep-12 19:24N 04°33' W 002°56'3 1.7
2017-Sep-12 17:25N 04°36' W 002°56'1 1.8
2017-Sep-12 16:59N 04°35' W 002°56'1 2.1
2017-Sep-12 16:29N 04°34' W 002°55'1 2.7
2017-Sep-12 15:56N 04°35' W 002°54'2 4.3
2017-Sep-12 15:30N 04°34' W 002°56'0 0.3
2017-Sep-12 14:58N 04°35' W 002°56'1 1.1
2017-Sep-12 14:29N 04°35' W 002°55'2 1.4
2017-Sep-12 12:55N 04°37' W 002°54'1 1.5
2017-Sep-12 12:17N 04°37' W 002°53'0 1.5
2017-Sep-12 11:59N 04°38' W 002°53'1 1.9
2017-Sep-12 11:30N 04°37' W 002°53'1 2.3
2017-Sep-12 11:00N 04°36' W 002°53'1 2.4
2017-Sep-12 10:30N 04°35' W 002°53'1 0.9
2017-Sep-12 09:19N 04°36' W 002°53'1 1.5
2017-Sep-12 08:58N 04°36' W 002°52'0 0.7
2017-Sep-12 08:30N 04°36' W 002°52'0 0.5
2017-Sep-12 08:00N 04°36' W 002°52'1 1.5
2017-Sep-12 07:29N 04°35' W 002°52'1 1.3
2017-Sep-12 06:54N 04°35' W 002°52'1 1.3
2017-Sep-12 06:30N 04°34' W 002°52'1 1.8
2017-Sep-12 06:00N 04°33' W 002°52'3 2.6
2017-Sep-12 04:44N 04°36' W 002°53'1 2.3
2017-Sep-12 04:25N 04°37' W 002°53'1 2.1
2017-Sep-12 04:00N 04°36' W 002°52'11 4.1
2017-Sep-12 01:19N 04°32' W 002°42'2 5.4
2017-Sep-12 01:00N 04°32' W 002°41'3 5.4
2017-Sep-12 00:27N 04°32' W 002°38'3 5.7
2017-Sep-11 23:59N 04°32' W 002°35'5 9.8
2017-Sep-11 23:30N 04°33' W 002°30'5 9.8
2017-Sep-11 23:00N 04°33' W 002°25'5 9.7
2017-Sep-11 22:30N 04°34' W 002°21'5 9.7
2017-Sep-11 21:59N 04°34' W 002°16'5 9.6
2017-Sep-11 21:30N 04°34' W 002°11'5 9.8
2017-Sep-11 20:59N 04°35' W 002°06'  

Dump ship's entire track history